Naval Communications Area Ma, Virginia
Current Conditions -  °F | °C
As of 8:59 AM on Tuesday 27 Jan 2015 (Local Time) from KNGU Reporting Station
Overcast Overcast  
Wind Chill: 24°   Ceiling: 1500
Heat Index: 34°   Visibility: 10mi
Dew Point: 26°   Wind: 16mph
Humidity: 73%   Direction: 350°N
Pressure: 29.78"   Gusts: NA
Location:  36.9343°N, 76.284°W
Report Text: KNGU 271359Z 35014KT 10SM OVC015 01/M03 A2978 RMK AO2 SLP085 WR56 BA GOOD T00111033
Loading
Personal Weather Stations






























Interactive Weather Map New forecast layout! Learn more

10-Day Weather Forecast

Advertisements
Track Severe Weather on mobile